aviador You're here:

KCLT Decoded Metar

CHARLOTTE in NC, USA
Report Time2018-07-16 07:52:00
UTC Time2018-07-16 08:32:48
Flight Rules vfr VFR
WindCalm
Visibility9999 m
Phenomena:N/A
Clouds:Broken 090 Hf
Broken 120 Hf
Expected CloudBase > 1,600 ft AGL from Temp-Dew spread
Ceiling9,000 ft
Temp26°C (ISA +12)
Dew Point22°C (79% RH)
QNH1018 hPa
Density Alt2,339 ft
Elevation722 ft
Report Wrong Elevation
Raw Report
METAR KCLT 160752Z 00000KT 10SM BKN090 BKN120 26/22 A3005 RMK AO2 SLP166
T02560222=

Extra information for KCLT:More info

Metar Taf Metar & Taf Last 4 Metars F.Rules Stats Wind Profile Meteogram Temp Stats Airport Information Weather charts Add Link Nearby VenuesMetar ALERT Operation Metar Decoded Social comments

AIRNAV info for KCLT